createdAt,value
2019-03-18T00:02:21.665Z,91.50
2019-03-18T00:04:50.863Z,90.88
2019-03-18T00:07:19.976Z,91.40
2019-03-18T00:09:49.093Z,92.19
2019-03-18T00:12:18.218Z,91.91
2019-03-18T00:14:47.379Z,92.09
2019-03-18T00:17:16.478Z,92.20
2019-03-18T00:19:45.583Z,91.73
2019-03-18T00:22:14.715Z,91.97
2019-03-18T00:24:43.850Z,92.19
2019-03-18T00:27:13.007Z,91.66
2019-03-18T00:29:42.121Z,91.65
2019-03-18T00:32:11.272Z,91.83
2019-03-18T00:34:40.382Z,92.37
2019-03-18T00:37:09.630Z,92.18
2019-03-18T00:39:38.708Z,92.22
2019-03-18T00:42:07.839Z,92.28
2019-03-18T00:44:36.949Z,92.58
2019-03-18T00:47:06.107Z,92.57
2019-03-18T00:49:35.220Z,92.93
2019-03-18T00:52:04.345Z,93.27
2019-03-18T00:54:33.469Z,93.64
2019-03-18T00:57:02.614Z,93.76
2019-03-18T00:59:31.712Z,93.94
2019-03-18T01:02:00.921Z,93.93
2019-03-18T01:04:30.098Z,93.47
2019-03-18T01:06:59.272Z,92.40
2019-03-18T01:09:28.705Z,91.50
2019-03-18T01:11:57.889Z,90.62
2019-03-18T01:14:27.057Z,90.41
2019-03-18T01:16:56.230Z,89.20
2019-03-18T01:19:25.411Z,89.14
2019-03-18T01:21:55.376Z,88.91
2019-03-18T01:24:24.599Z,88.54
2019-03-18T01:26:53.696Z,88.70
2019-03-18T01:29:22.878Z,89.00
2019-03-18T01:31:51.986Z,88.65
2019-03-18T01:34:21.185Z,88.49
2019-03-18T01:36:50.310Z,88.51
2019-03-18T01:39:19.464Z,87.94
2019-03-18T01:41:48.571Z,87.75
2019-03-18T01:44:17.681Z,87.03
2019-03-18T01:46:47.570Z,86.97
2019-03-18T01:49:16.680Z,86.63
2019-03-18T01:51:45.830Z,86.96
2019-03-18T01:54:14.941Z,86.76
2019-03-18T01:56:44.119Z,86.70
2019-03-18T01:59:13.397Z,86.75
2019-03-18T02:01:42.544Z,86.53
2019-03-18T02:04:11.666Z,87.20
2019-03-18T02:06:40.804Z,87.24
2019-03-18T02:09:10.011Z,87.65
2019-03-18T02:11:39.246Z,87.37
2019-03-18T02:14:08.384Z,87.55
2019-03-18T02:16:37.534Z,87.19
2019-03-18T02:19:06.662Z,86.63
2019-03-18T02:21:35.836Z,86.77
2019-03-18T02:24:05.373Z,86.66
2019-03-18T02:26:34.485Z,86.10
2019-03-18T02:29:03.752Z,85.81
2019-03-18T02:31:33.009Z,85.73
2019-03-18T02:34:02.233Z,85.90
2019-03-18T02:36:31.499Z,86.01
2019-03-18T02:39:00.680Z,85.90
2019-03-18T02:41:29.846Z,85.87
2019-03-18T02:43:58.947Z,86.13
2019-03-18T02:46:28.083Z,86.04
2019-03-18T02:48:57.205Z,86.12
2019-03-18T02:51:26.419Z,86.10
2019-03-18T02:53:55.550Z,86.52
2019-03-18T02:56:24.669Z,86.69
2019-03-18T02:58:53.772Z,87.02
2019-03-18T03:01:23.061Z,87.43
2019-03-18T03:03:52.229Z,87.21
2019-03-18T03:06:21.325Z,87.30
2019-03-18T03:08:50.550Z,87.42
2019-03-18T03:11:19.709Z,87.64
2019-03-18T03:13:48.846Z,87.45
2019-03-18T03:16:26.356Z,87.15
2019-03-18T03:18:48.779Z,87.53
2019-03-18T03:21:17.939Z,87.53
2019-03-18T03:23:47.048Z,87.72
2019-03-18T03:26:16.173Z,87.62
2019-03-18T03:28:45.339Z,88.11
2019-03-18T03:31:14.461Z,88.13
2019-03-18T03:33:43.547Z,88.58
2019-03-18T03:36:12.636Z,88.84
2019-03-18T03:38:41.763Z,89.36
2019-03-18T03:41:10.883Z,89.43
2019-03-18T03:43:40.045Z,89.37
2019-03-18T03:46:09.203Z,89.50
2019-03-18T03:48:38.344Z,89.84
2019-03-18T03:51:07.709Z,90.17
2019-03-18T03:53:36.859Z,90.11
2019-03-18T03:56:06.113Z,89.60
2019-03-18T03:58:35.351Z,89.48
2019-03-18T04:01:04.473Z,89.74
2019-03-18T04:03:38.572Z,89.47
2019-03-18T04:06:04.657Z,89.87
2019-03-18T04:08:33.828Z,90.28
2019-03-18T04:11:03.012Z,89.70
2019-03-18T04:13:32.139Z,90.02
2019-03-18T04:16:01.235Z,90.50
2019-03-18T04:18:30.366Z,90.79
2019-03-18T04:20:59.449Z,90.73
2019-03-18T04:23:28.893Z,91.37
2019-03-18T04:25:57.999Z,91.33
2019-03-18T04:28:27.187Z,91.35
2019-03-18T04:30:56.323Z,91.70
2019-03-18T04:33:25.571Z,91.90
2019-03-18T04:35:54.743Z,92.29
2019-03-18T04:38:23.845Z,92.20
2019-03-18T04:40:53.146Z,92.39
2019-03-18T04:43:22.263Z,93.00
2019-03-18T04:45:51.459Z,93.60
2019-03-18T04:48:20.580Z,93.84
2019-03-18T04:50:49.728Z,93.74
2019-03-18T04:53:18.842Z,93.25
2019-03-18T04:55:47.957Z,93.05
2019-03-18T04:58:17.111Z,92.63
2019-03-18T05:00:46.238Z,92.47
2019-03-18T05:03:15.575Z,92.14
2019-03-18T05:05:44.747Z,91.81
2019-03-18T05:08:13.873Z,91.92
2019-03-18T05:10:43.090Z,92.08
2019-03-18T05:13:12.205Z,92.08
2019-03-18T05:15:41.334Z,91.91
2019-03-18T05:18:10.488Z,91.67
2019-03-18T05:20:39.618Z,91.83
2019-03-18T05:23:08.754Z,91.44
2019-03-18T05:25:38.087Z,91.07
2019-03-18T05:28:07.260Z,90.91
2019-03-18T05:30:36.363Z,90.74
2019-03-18T05:33:05.642Z,91.36
2019-03-18T05:35:34.807Z,91.50
2019-03-18T05:38:04.055Z,91.28
2019-03-18T05:40:33.178Z,91.25
2019-03-18T05:43:02.310Z,91.07
2019-03-18T05:45:31.413Z,91.70
2019-03-18T05:48:00.623Z,90.85
2019-03-18T05:50:29.752Z,91.04
2019-03-18T05:52:58.989Z,90.33
2019-03-18T05:55:28.097Z,90.46
2019-03-18T05:57:57.490Z,89.84
2019-03-18T06:00:26.690Z,89.73
2019-03-18T06:02:55.944Z,90.11
2019-03-18T06:05:25.137Z,89.24
2019-03-18T06:07:54.243Z,89.12
2019-03-18T06:10:23.370Z,89.10
2019-03-18T06:12:52.531Z,88.73
2019-03-18T06:15:21.624Z,89.04
2019-03-18T06:17:52.683Z,88.89
2019-03-18T06:20:21.778Z,88.17
2019-03-18T06:22:50.908Z,88.38
2019-03-18T06:25:20.144Z,88.70
2019-03-18T06:27:49.325Z,88.39
2019-03-18T06:30:18.430Z,87.91
2019-03-18T06:32:47.573Z,87.71
2019-03-18T06:35:16.713Z,87.57
2019-03-18T06:37:45.884Z,87.16
2019-03-18T06:40:15.014Z,87.39
2019-03-18T06:42:44.196Z,88.82
2019-03-18T06:45:13.439Z,86.66
2019-03-18T06:47:42.642Z,87.02
2019-03-18T06:50:11.854Z,93.37
2019-03-18T06:52:40.957Z,85.03
2019-03-18T06:55:10.089Z,85.56
2019-03-18T06:57:39.234Z,86.95
2019-03-18T07:00:09.208Z,83.93
2019-03-18T07:02:38.544Z,83.49
2019-03-18T07:05:08.204Z,82.47
2019-03-18T07:07:37.334Z,82.53
2019-03-18T07:10:06.678Z,83.25
2019-03-18T07:12:35.847Z,83.36
2019-03-18T07:15:05.258Z,82.50
2019-03-18T07:17:34.480Z,80.85
2019-03-18T07:20:03.634Z,78.52
2019-03-18T07:22:32.785Z,77.62
2019-03-18T07:25:02.206Z,75.26
2019-03-18T07:27:31.445Z,73.33
2019-03-18T07:30:00.603Z,73.21
2019-03-18T07:32:30.016Z,73.09
2019-03-18T07:34:59.170Z,73.41
2019-03-18T07:37:28.280Z,72.25
2019-03-18T07:39:57.412Z,74.00
2019-03-18T07:42:26.541Z,73.44
2019-03-18T07:44:55.685Z,72.00
2019-03-18T07:47:24.850Z,71.85
2019-03-18T07:49:54.065Z,71.64
2019-03-18T07:52:23.192Z,71.03
2019-03-18T07:54:52.320Z,73.02
2019-03-18T07:57:21.433Z,72.27
2019-03-18T07:59:50.561Z,72.34
2019-03-18T08:02:19.703Z,70.47
2019-03-18T08:04:48.829Z,71.03
2019-03-18T08:07:18.055Z,70.48
2019-03-18T08:09:47.200Z,69.80
2019-03-18T08:12:16.392Z,71.04
2019-03-18T08:14:45.498Z,73.76
2019-03-18T08:17:14.725Z,74.60
2019-03-18T08:19:44.241Z,75.68
2019-03-18T08:22:13.492Z,77.26
2019-03-18T08:24:42.717Z,77.54
2019-03-18T08:27:12.024Z,76.61
2019-03-18T08:29:41.170Z,76.78
2019-03-18T08:32:11.800Z,77.04
2019-03-18T08:34:41.135Z,76.33
2019-03-18T08:37:10.258Z,76.56
2019-03-18T08:39:39.379Z,77.68
2019-03-18T08:42:08.539Z,77.55
2019-03-18T08:44:40.368Z,77.32
2019-03-18T08:47:08.545Z,75.30
2019-03-18T08:49:37.680Z,76.44
2019-03-18T08:52:06.790Z,75.94
2019-03-18T08:54:35.930Z,75.05
2019-03-18T08:57:05.363Z,71.63
2019-03-18T08:59:34.472Z,71.08
2019-03-18T09:02:03.667Z,71.08
2019-03-18T09:04:32.808Z,70.20
2019-03-18T09:07:01.950Z,71.39
2019-03-18T09:09:31.190Z,70.64
2019-03-18T09:12:00.361Z,68.16
2019-03-18T09:14:29.512Z,66.73
2019-03-18T09:16:58.646Z,69.38
2019-03-18T09:19:27.814Z,66.07
2019-03-18T09:21:56.929Z,65.87
2019-03-18T09:24:26.208Z,67.56
2019-03-18T09:27:02.301Z,66.61
2019-03-18T09:29:26.358Z,69.17
2019-03-18T09:31:55.516Z,70.21
2019-03-18T09:34:24.681Z,69.17
2019-03-18T09:36:53.829Z,70.50
2019-03-18T09:39:22.952Z,70.07
2019-03-18T09:41:52.266Z,65.79
2019-03-18T09:44:21.446Z,62.86
2019-03-18T09:46:50.662Z,61.83
2019-03-18T09:49:21.870Z,62.09
2019-03-18T09:51:50.648Z,60.95
2019-03-18T09:54:19.790Z,63.25
2019-03-18T09:56:48.989Z,63.69
2019-03-18T09:59:18.190Z,65.59
2019-03-18T10:01:47.360Z,66.28
2019-03-18T10:04:16.531Z,66.34
2019-03-18T10:06:48.291Z,65.45
2019-03-18T10:09:16.553Z,63.48
2019-03-18T10:11:45.875Z,60.49
2019-03-18T10:14:15.029Z,61.09
2019-03-18T10:16:44.192Z,59.30
2019-03-18T10:19:13.335Z,60.33
2019-03-18T10:21:42.521Z,61.21
2019-03-18T10:24:11.669Z,64.04
2019-03-18T10:26:40.945Z,66.03
2019-03-18T10:29:10.097Z,66.35
2019-03-18T10:31:39.402Z,65.92
2019-03-18T10:34:08.541Z,65.55
2019-03-18T10:36:37.689Z,65.14
2019-03-18T10:39:08.123Z,63.93
2019-03-18T10:41:37.331Z,64.96
2019-03-18T10:44:06.474Z,67.62
2019-03-18T10:46:35.647Z,68.66
2019-03-18T10:49:04.847Z,68.68
2019-03-18T10:51:34.007Z,69.61
2019-03-18T10:54:03.224Z,69.95
2019-03-18T10:56:32.347Z,69.39
2019-03-18T10:59:01.496Z,70.48
2019-03-18T11:01:30.650Z,69.86
2019-03-18T11:03:59.894Z,66.23
2019-03-18T11:06:29.142Z,63.31
2019-03-18T11:08:58.307Z,63.53
2019-03-18T11:11:27.450Z,62.90
2019-03-18T11:13:56.687Z,63.44
2019-03-18T11:16:25.796Z,63.62
2019-03-18T11:18:54.996Z,64.41
2019-03-18T11:21:24.150Z,64.31
2019-03-18T11:23:53.419Z,64.72
2019-03-18T11:26:22.562Z,64.57
2019-03-18T11:28:51.724Z,62.18
2019-03-18T11:31:20.831Z,63.45
2019-03-18T11:33:50.032Z,65.52
2019-03-18T11:36:19.169Z,66.09
2019-03-18T11:38:48.313Z,67.56
2019-03-18T11:41:17.797Z,68.10
2019-03-18T11:43:46.971Z,69.10
2019-03-18T11:46:16.173Z,72.59
2019-03-18T11:48:45.630Z,74.42
2019-03-18T11:51:14.783Z,75.08
2019-03-18T11:53:43.901Z,76.63
2019-03-18T11:56:13.064Z,77.31
2019-03-18T11:58:42.189Z,73.79
2019-03-18T12:01:11.348Z,73.63
2019-03-18T12:03:40.507Z,72.96
2019-03-18T12:06:09.711Z,71.59
2019-03-18T12:08:38.849Z,71.77
2019-03-18T12:11:07.993Z,69.45
2019-03-18T12:13:37.254Z,67.57
2019-03-18T12:16:06.374Z,72.87
2019-03-18T12:18:35.581Z,70.06
2019-03-18T12:21:04.775Z,67.49
2019-03-18T12:23:33.842Z,62.50
2019-03-18T12:26:03.015Z,60.27
2019-03-18T12:28:32.374Z,58.13
2019-03-18T12:31:01.569Z,56.26
2019-03-18T12:33:30.736Z,56.82
2019-03-18T12:35:59.947Z,56.48
2019-03-18T12:38:29.079Z,56.44
2019-03-18T12:40:58.213Z,52.66
2019-03-18T12:43:27.394Z,53.51
2019-03-18T12:45:56.589Z,54.54
2019-03-18T12:48:25.807Z,52.62
2019-03-18T12:50:56.597Z,53.15
2019-03-18T12:53:26.078Z,52.70
2019-03-18T12:55:55.331Z,54.62
2019-03-18T12:58:24.576Z,54.74
2019-03-18T13:00:53.699Z,53.87
2019-03-18T13:03:23.093Z,55.14
2019-03-18T13:05:52.270Z,55.14
2019-03-18T13:08:21.446Z,56.84
2019-03-18T13:10:50.630Z,57.75
2019-03-18T13:13:19.836Z,57.23
2019-03-18T13:15:48.969Z,57.45
2019-03-18T13:18:18.220Z,54.77
2019-03-18T13:20:47.402Z,55.68
2019-03-18T13:23:16.539Z,55.79
2019-03-18T13:25:45.681Z,59.51
2019-03-18T13:28:14.859Z,62.40
2019-03-18T13:30:44.030Z,62.75
2019-03-18T13:33:13.211Z,63.57
2019-03-18T13:35:43.237Z,61.42
2019-03-18T13:38:12.555Z,59.87
2019-03-18T13:40:42.045Z,58.32
2019-03-18T13:43:11.285Z,59.02
2019-03-18T13:45:40.551Z,57.91
2019-03-18T13:48:09.863Z,57.18
2019-03-18T13:50:39.120Z,50.62
2019-03-18T13:53:08.322Z,48.42
2019-03-18T13:55:37.537Z,48.42
2019-03-18T13:58:06.757Z,49.83
2019-03-18T14:00:35.950Z,49.83
2019-03-18T14:03:05.089Z,52.42
2019-03-18T14:05:34.271Z,52.63
2019-03-18T14:08:03.445Z,51.69
2019-03-18T14:10:32.621Z,52.41
2019-03-18T14:13:01.853Z,54.81
2019-03-18T14:15:31.030Z,53.80
2019-03-18T14:18:00.604Z,54.51
2019-03-18T14:20:29.781Z,53.64
2019-03-18T14:22:58.960Z,55.21
2019-03-18T14:25:28.153Z,54.33
2019-03-18T14:27:57.324Z,55.72
2019-03-18T14:30:26.586Z,55.63
2019-03-18T14:32:56.070Z,56.75
2019-03-18T14:35:25.235Z,56.42
2019-03-18T14:37:54.402Z,55.10
2019-03-18T14:40:23.601Z,54.45
2019-03-18T14:42:52.755Z,53.56
2019-03-18T14:45:22.014Z,53.53
2019-03-18T14:47:51.208Z,54.31
2019-03-18T14:50:20.812Z,54.21
2019-03-18T14:52:50.059Z,54.04
2019-03-18T14:55:19.325Z,54.49
2019-03-18T14:57:48.516Z,54.79
2019-03-18T15:00:19.964Z,54.55
2019-03-18T15:02:49.568Z,52.97
2019-03-18T15:05:18.752Z,54.19
2019-03-18T15:07:47.918Z,52.27
2019-03-18T15:10:17.291Z,52.17
2019-03-18T15:12:46.650Z,50.59
2019-03-18T15:15:16.399Z,53.00
2019-03-18T15:17:45.580Z,53.46
2019-03-18T15:20:14.852Z,56.35
2019-03-18T15:22:44.026Z,59.41
2019-03-18T15:25:15.424Z,63.27
2019-03-18T15:27:44.621Z,74.20
2019-03-18T15:30:16.075Z,82.66
2019-03-18T15:32:45.234Z,86.86
2019-03-18T15:35:14.550Z,87.20
2019-03-18T15:37:43.759Z,86.79
2019-03-18T15:40:14.020Z,86.55
2019-03-18T15:42:43.314Z,77.13
2019-03-18T15:45:13.164Z,83.69
2019-03-18T15:47:42.355Z,87.40
2019-03-18T15:50:14.013Z,85.49
2019-03-18T15:52:43.191Z,83.73
2019-03-18T15:55:12.377Z,85.63
2019-03-18T15:57:41.594Z,83.73
2019-03-18T16:00:12.824Z,83.96
2019-03-18T16:02:42.117Z,82.84
2019-03-18T16:05:11.251Z,80.97
2019-03-18T16:07:40.824Z,79.49
2019-03-18T16:10:10.464Z,78.21
2019-03-18T16:12:39.626Z,76.18
2019-03-18T16:15:09.728Z,74.64
2019-03-18T16:17:41.382Z,73.29
2019-03-18T16:20:11.135Z,72.98
2019-03-18T16:22:40.312Z,71.95
2019-03-18T16:25:09.641Z,70.11
2019-03-18T16:27:38.934Z,70.89
2019-03-18T16:30:09.473Z,71.98
2019-03-18T16:32:38.759Z,72.50
2019-03-18T16:35:08.700Z,75.74
2019-03-18T16:37:37.902Z,75.35
2019-03-18T16:40:07.828Z,75.83
2019-03-18T16:42:37.050Z,76.87
2019-03-18T16:45:06.789Z,75.45
2019-03-18T16:47:35.965Z,75.56
2019-03-18T16:50:05.799Z,74.18
2019-03-18T16:52:36.346Z,71.89
2019-03-18T16:55:05.834Z,72.41
2019-03-18T16:57:35.087Z,73.05
2019-03-18T17:00:04.493Z,73.92
2019-03-18T17:02:33.666Z,73.45
2019-03-18T17:05:02.829Z,73.86
2019-03-18T17:07:32.061Z,74.26
2019-03-18T17:10:01.214Z,77.58
2019-03-18T17:12:30.406Z,75.92
2019-03-18T17:14:59.582Z,76.91
2019-03-18T17:17:28.845Z,78.27
2019-03-18T17:19:58.096Z,78.85
2019-03-18T17:22:27.235Z,79.21
2019-03-18T17:24:56.446Z,79.85
2019-03-18T17:27:25.687Z,80.45
2019-03-18T17:29:54.876Z,81.43
2019-03-18T17:32:24.140Z,82.25
2019-03-18T17:34:53.255Z,83.81
2019-03-18T17:37:22.465Z,83.90
2019-03-18T17:39:51.796Z,84.76
2019-03-18T17:42:21.502Z,85.33
2019-03-18T17:44:50.777Z,85.77
2019-03-18T17:47:19.969Z,86.30
2019-03-18T17:49:49.149Z,86.23
2019-03-18T17:52:18.610Z,86.41
2019-03-18T17:54:47.810Z,88.12
2019-03-18T17:57:16.968Z,88.31
2019-03-18T17:59:46.197Z,88.05
2019-03-18T18:02:16.226Z,87.29
2019-03-18T18:04:45.367Z,87.29
2019-03-18T18:07:14.603Z,86.94
2019-03-18T18:09:43.836Z,85.89
2019-03-18T18:12:13.056Z,85.17
2019-03-18T18:14:46.466Z,85.59
2019-03-18T18:17:15.764Z,85.96
2019-03-18T18:19:44.947Z,86.24
2019-03-18T18:22:14.189Z,86.03
2019-03-18T18:24:43.632Z,86.97
2019-03-18T18:27:12.860Z,87.85
2019-03-18T18:29:42.170Z,88.58
2019-03-18T18:32:11.452Z,88.92
2019-03-18T18:34:40.625Z,89.27
2019-03-18T18:37:09.747Z,89.74
2019-03-18T18:39:39.020Z,89.78
2019-03-18T18:42:08.443Z,91.20
2019-03-18T18:44:37.894Z,91.08
2019-03-18T18:47:07.060Z,90.75
2019-03-18T18:49:36.325Z,91.60
2019-03-18T18:52:05.525Z,91.46
2019-03-18T18:54:34.762Z,91.56
2019-03-18T18:57:03.966Z,91.24
2019-03-18T18:59:33.334Z,91.08
2019-03-18T19:02:02.554Z,91.02
2019-03-18T19:04:31.739Z,90.91
2019-03-18T19:07:00.945Z,91.64
2019-03-18T19:09:30.129Z,92.09
2019-03-18T19:11:59.315Z,92.28
2019-03-18T19:14:28.611Z,92.49
2019-03-18T19:16:57.860Z,92.07
2019-03-18T19:19:27.051Z,92.53
2019-03-18T19:21:56.300Z,92.63
2019-03-18T19:24:25.524Z,92.91
2019-03-18T19:26:54.696Z,92.74
2019-03-18T19:29:23.984Z,93.17
2019-03-18T19:31:53.224Z,93.70
2019-03-18T19:34:22.406Z,94.01
2019-03-18T19:36:51.635Z,95.09
2019-03-18T19:39:20.838Z,95.37
2019-03-18T19:41:50.010Z,95.63
2019-03-18T19:44:19.334Z,95.46
2019-03-18T19:46:48.684Z,95.70
2019-03-18T19:49:17.938Z,96.77
2019-03-18T19:51:47.163Z,97.08
2019-03-18T19:54:16.379Z,96.71
2019-03-18T19:56:45.593Z,96.17
2019-03-18T19:59:14.823Z,96.65
2019-03-18T20:01:44.195Z,96.74
2019-03-18T20:04:13.386Z,97.35
2019-03-18T20:06:42.610Z,97.37
2019-03-18T20:09:11.755Z,97.41
2019-03-18T20:11:41.012Z,97.06
2019-03-18T20:14:10.169Z,97.37
2019-03-18T20:16:39.886Z,97.72
2019-03-18T20:19:09.080Z,97.64
2019-03-18T20:21:38.325Z,98.12
2019-03-18T20:24:07.510Z,97.27
2019-03-18T20:26:36.692Z,96.95
2019-03-18T20:29:05.950Z,97.59
2019-03-18T20:31:35.161Z,98.73
2019-03-18T20:34:04.440Z,98.99
2019-03-18T20:36:33.565Z,98.66
2019-03-18T20:39:02.845Z,99.08
2019-03-18T20:41:32.334Z,99.43
2019-03-18T20:44:01.654Z,99.40
2019-03-18T20:46:30.999Z,100.00
2019-03-18T20:49:00.269Z,100.00
2019-03-18T20:51:29.482Z,100.00
2019-03-18T20:53:58.674Z,100.00
2019-03-18T20:56:27.912Z,100.00
2019-03-18T20:58:57.138Z,100.00
2019-03-18T21:01:26.422Z,99.79
2019-03-18T21:03:55.985Z,99.91
2019-03-18T21:06:25.220Z,100.00
2019-03-18T21:08:54.520Z,100.00
2019-03-18T21:11:23.699Z,99.71
2019-03-18T21:13:57.397Z,99.69
2019-03-18T21:16:24.220Z,99.55
2019-03-18T21:18:53.510Z,99.50
2019-03-18T21:21:22.688Z,99.70
2019-03-18T21:23:52.922Z,99.29
2019-03-18T21:26:22.173Z,100.00
2019-03-18T21:28:51.367Z,100.00
2019-03-18T21:31:20.579Z,100.00
2019-03-18T21:33:49.753Z,100.00
2019-03-18T21:36:33.035Z,100.00
2019-03-18T21:38:49.964Z,100.00
2019-03-18T21:41:19.127Z,100.00
2019-03-18T21:43:48.447Z,100.00
2019-03-18T21:46:17.673Z,100.00
2019-03-18T21:48:46.874Z,100.00
2019-03-18T21:51:16.089Z,100.00
2019-03-18T21:53:45.288Z,100.00
2019-03-18T21:56:14.560Z,100.00
2019-03-18T21:58:43.986Z,100.00
2019-03-18T22:01:13.131Z,100.00
2019-03-18T22:03:42.325Z,100.00
2019-03-18T22:06:11.505Z,100.00
2019-03-18T22:08:40.707Z,100.00
2019-03-18T22:11:09.852Z,99.54
2019-03-18T22:13:39.005Z,99.59
2019-03-18T22:16:08.219Z,100.00
2019-03-18T22:18:37.364Z,100.00
2019-03-18T22:21:06.922Z,100.00
2019-03-18T22:23:36.756Z,99.97
2019-03-18T22:26:06.212Z,100.00
2019-03-18T22:28:35.468Z,100.00
2019-03-18T22:31:04.650Z,100.00
2019-03-18T22:33:33.900Z,100.00
2019-03-18T22:36:03.263Z,100.00
2019-03-18T22:38:32.421Z,100.00
2019-03-18T22:41:01.624Z,100.00
2019-03-18T22:43:30.856Z,100.00
2019-03-18T22:45:59.994Z,100.00
2019-03-18T22:48:29.181Z,100.00
2019-03-18T22:50:58.427Z,100.00
2019-03-18T22:53:27.639Z,100.00
2019-03-18T22:55:56.786Z,100.00
2019-03-18T22:58:26.286Z,100.00
2019-03-18T23:01:20.737Z,100.00
2019-03-18T23:03:50.146Z,100.00
2019-03-18T23:06:19.319Z,100.00
2019-03-18T23:08:49.023Z,100.00
2019-03-18T23:11:18.398Z,100.00
2019-03-18T23:13:47.571Z,100.00
2019-03-18T23:16:16.761Z,100.00
2019-03-18T23:18:46.199Z,100.00
2019-03-18T23:21:15.526Z,100.00
2019-03-18T23:23:44.780Z,100.00
2019-03-18T23:26:13.941Z,100.00
2019-03-18T23:28:43.116Z,100.00
2019-03-18T23:31:12.334Z,100.00
2019-03-18T23:33:41.543Z,100.00
2019-03-18T23:36:10.798Z,100.00
2019-03-18T23:38:39.954Z,100.00
2019-03-18T23:41:09.096Z,100.00
2019-03-18T23:43:38.283Z,100.00
2019-03-18T23:46:07.503Z,100.00
2019-03-18T23:48:37.270Z,100.00
2019-03-18T23:51:06.470Z,100.00
2019-03-18T23:53:35.775Z,100.00
2019-03-18T23:56:04.984Z,100.00
2019-03-18T23:58:34.179Z,100.00
